sensor_id;sensor_type;location;lat;lon;timestamp;pressure;altitude;pressure_sealevel;temperature;humidity
55550;BME280;41397;49.972;18.944;2022-09-17T00:02:00;100887.34;;;14.93;75.01
55550;BME280;41397;49.972;18.944;2022-09-17T00:05:03;100891.10;;;14.92;75.00
55550;BME280;41397;49.972;18.944;2022-09-17T00:08:06;100885.76;;;14.90;75.00
55550;BME280;41397;49.972;18.944;2022-09-17T00:11:13;100884.90;;;14.90;75.11
55550;BME280;41397;49.972;18.944;2022-09-17T00:14:16;100884.31;;;14.86;75.00
55550;BME280;41397;49.972;18.944;2022-09-17T00:17:18;100884.48;;;14.84;75.29
55550;BME280;41397;49.972;18.944;2022-09-17T00:20:19;100881.86;;;14.83;75.30
55550;BME280;41397;49.972;18.944;2022-09-17T00:23:21;100879.12;;;14.83;75.30
55550;BME280;41397;49.972;18.944;2022-09-17T00:26:23;100887.81;;;14.78;75.58
55550;BME280;41397;49.972;18.944;2022-09-17T00:29:24;100889.70;;;14.78;75.54
55550;BME280;41397;49.972;18.944;2022-09-17T00:32:26;100891.89;;;14.74;75.92
55550;BME280;41397;49.972;18.944;2022-09-17T00:35:27;100907.14;;;14.69;76.42
55550;BME280;41397;49.972;18.944;2022-09-17T00:38:29;100901.46;;;14.70;76.11
55550;BME280;41397;49.972;18.944;2022-09-17T00:41:32;100894.10;;;14.71;75.99
55550;BME280;41397;49.972;18.944;2022-09-17T00:44:46;100895.27;;;14.68;76.00
55550;BME280;41397;49.972;18.944;2022-09-17T00:47:56;100889.03;;;14.66;76.14
55550;BME280;41397;49.972;18.944;2022-09-17T00:51:05;100883.66;;;14.64;76.03
55550;BME280;41397;49.972;18.944;2022-09-17T00:54:09;100880.65;;;14.58;76.19
55550;BME280;41397;49.972;18.944;2022-09-17T00:57:12;100879.79;;;14.57;76.12
55550;BME280;41397;49.972;18.944;2022-09-17T01:00:15;100872.84;;;14.53;76.19
55550;BME280;41397;49.972;18.944;2022-09-17T01:03:17;100874.99;;;14.50;76.53
55550;BME280;41397;49.972;18.944;2022-09-17T01:12:56;100862.53;;;14.46;76.11
55550;BME280;41397;49.972;18.944;2022-09-17T01:16:05;100868.03;;;14.46;76.22
55550;BME280;41397;49.972;18.944;2022-09-17T01:19:24;100875.90;;;14.40;76.43
55550;BME280;41397;49.972;18.944;2022-09-17T01:32:11;100886.34;;;14.27;76.54
55550;BME280;41397;49.972;18.944;2022-09-17T01:38:50;100887.77;;;14.31;76.38
55550;BME280;41397;49.972;18.944;2022-09-17T01:45:08;100890.26;;;14.25;76.58
55550;BME280;41397;49.972;18.944;2022-09-17T01:48:16;100885.45;;;14.27;76.73
55550;BME280;41397;49.972;18.944;2022-09-17T01:51:23;100895.88;;;14.23;76.88
55550;BME280;41397;49.972;18.944;2022-09-17T01:54:31;100887.07;;;14.19;77.28
55550;BME280;41397;49.972;18.944;2022-09-17T02:00:59;100889.98;;;14.08;78.34
55550;BME280;41397;49.972;18.944;2022-09-17T02:04:10;100889.12;;;14.08;78.47
55550;BME280;41397;49.972;18.944;2022-09-17T02:07:18;100889.69;;;14.02;78.50
55550;BME280;41397;49.972;18.944;2022-09-17T02:10:28;100896.94;;;14.03;78.67
55550;BME280;41397;49.972;18.944;2022-09-17T02:16:51;100902.86;;;13.98;78.99
55550;BME280;41397;49.972;18.944;2022-09-17T02:19:55;100899.10;;;13.89;79.29
55550;BME280;41397;49.972;18.944;2022-09-17T02:22:58;100909.80;;;13.92;79.28
55550;BME280;41397;49.972;18.944;2022-09-17T02:26:10;100916.30;;;13.82;79.68
55550;BME280;41397;49.972;18.944;2022-09-17T02:32:26;100907.77;;;13.85;79.50
55550;BME280;41397;49.972;18.944;2022-09-17T02:35:30;100911.11;;;13.79;80.08
55550;BME280;41397;49.972;18.944;2022-09-17T02:38:34;100922.09;;;13.79;79.79
55550;BME280;41397;49.972;18.944;2022-09-17T02:41:45;100917.88;;;13.74;80.01
55550;BME280;41397;49.972;18.944;2022-09-17T02:45:00;100909.93;;;13.71;79.97
55550;BME280;41397;49.972;18.944;2022-09-17T02:48:14;100901.10;;;13.77;79.96
55550;BME280;41397;49.972;18.944;2022-09-17T03:00:56;100883.47;;;13.70;79.63
55550;BME280;41397;49.972;18.944;2022-09-17T03:04:04;100877.11;;;13.70;79.58
55550;BME280;41397;49.972;18.944;2022-09-17T03:07:08;100874.65;;;13.67;79.63
55550;BME280;41397;49.972;18.944;2022-09-17T03:10:11;100876.66;;;13.65;79.65
55550;BME280;41397;49.972;18.944;2022-09-17T03:13:14;100866.11;;;13.50;79.92
55550;BME280;41397;49.972;18.944;2022-09-17T03:16:16;100863.48;;;13.49;79.88
55550;BME280;41397;49.972;18.944;2022-09-17T03:19:17;100872.91;;;13.56;79.42
55550;BME280;41397;49.972;18.944;2022-09-17T03:22:19;100861.63;;;13.59;79.35
55550;BME280;41397;49.972;18.944;2022-09-17T03:25:20;100860.88;;;13.57;79.02
55550;BME280;41397;49.972;18.944;2022-09-17T03:28:21;100859.01;;;13.58;78.95
55550;BME280;41397;49.972;18.944;2022-09-17T03:31:23;100862.76;;;13.47;79.22
55550;BME280;41397;49.972;18.944;2022-09-17T03:34:24;100856.68;;;13.43;79.41
55550;BME280;41397;49.972;18.944;2022-09-17T03:37:25;100854.38;;;13.48;79.08
55550;BME280;41397;49.972;18.944;2022-09-17T03:40:27;100851.77;;;13.47;79.04
55550;BME280;41397;49.972;18.944;2022-09-17T03:43:28;100847.28;;;13.46;78.97
55550;BME280;41397;49.972;18.944;2022-09-17T03:46:30;100846.55;;;13.44;79.06
55550;BME280;41397;49.972;18.944;2022-09-17T03:49:31;100841.48;;;13.39;79.37
55550;BME280;41397;49.972;18.944;2022-09-17T03:52:33;100833.84;;;13.43;78.90
55550;BME280;41397;49.972;18.944;2022-09-17T03:55:37;100832.41;;;13.48;78.76
55550;BME280;41397;49.972;18.944;2022-09-17T03:58:39;100841.64;;;13.47;78.71
55550;BME280;41397;49.972;18.944;2022-09-17T04:01:40;100838.76;;;13.49;78.70
55550;BME280;41397;49.972;18.944;2022-09-17T04:04:41;100834.70;;;13.53;78.51
55550;BME280;41397;49.972;18.944;2022-09-17T04:07:43;100840.80;;;13.57;78.47
55550;BME280;41397;49.972;18.944;2022-09-17T04:10:44;100852.77;;;13.55;78.14
55550;BME280;41397;49.972;18.944;2022-09-17T04:13:46;100854.95;;;13.52;78.36
55550;BME280;41397;49.972;18.944;2022-09-17T04:16:47;100850.17;;;13.44;78.62
55550;BME280;41397;49.972;18.944;2022-09-17T04:19:49;100847.13;;;13.47;78.79
55550;BME280;41397;49.972;18.944;2022-09-17T04:22:51;100840.77;;;13.47;78.58
55550;BME280;41397;49.972;18.944;2022-09-17T04:25:52;100838.02;;;13.47;78.59
55550;BME280;41397;49.972;18.944;2022-09-17T04:28:55;100835.15;;;13.48;78.48
55550;BME280;41397;49.972;18.944;2022-09-17T04:31:56;100841.80;;;13.46;78.83
55550;BME280;41397;49.972;18.944;2022-09-17T04:34:57;100828.80;;;13.48;78.81
55550;BME280;41397;49.972;18.944;2022-09-17T04:37:59;100844.83;;;13.43;79.08
55550;BME280;41397;49.972;18.944;2022-09-17T04:41:05;100847.59;;;13.43;79.03
55550;BME280;41397;49.972;18.944;2022-09-17T04:44:07;100846.43;;;13.45;78.81
55550;BME280;41397;49.972;18.944;2022-09-17T04:47:08;100839.49;;;13.51;78.93
55550;BME280;41397;49.972;18.944;2022-09-17T04:50:10;100855.69;;;13.54;78.91
55550;BME280;41397;49.972;18.944;2022-09-17T04:53:11;100851.20;;;13.63;78.55
55550;BME280;41397;49.972;18.944;2022-09-17T04:56:13;100853.38;;;13.79;79.05
55550;BME280;41397;49.972;18.944;2022-09-17T04:59:14;100852.48;;;14.07;79.21
55550;BME280;41397;49.972;18.944;2022-09-17T05:02:16;100840.88;;;14.23;78.39
55550;BME280;41397;49.972;18.944;2022-09-17T05:05:19;100844.60;;;14.41;77.31
55550;BME280;41397;49.972;18.944;2022-09-17T05:08:23;100845.58;;;14.50;76.32
55550;BME280;41397;49.972;18.944;2022-09-17T05:11:25;100858.94;;;14.55;75.60
55550;BME280;41397;49.972;18.944;2022-09-17T05:14:26;100857.05;;;14.55;75.40
55550;BME280;41397;49.972;18.944;2022-09-17T05:17:27;100853.43;;;14.55;75.38
55550;BME280;41397;49.972;18.944;2022-09-17T05:20:29;100849.21;;;14.60;75.18
55550;BME280;41397;49.972;18.944;2022-09-17T05:23:30;100839.36;;;14.58;75.05
55550;BME280;41397;49.972;18.944;2022-09-17T05:26:32;100845.13;;;14.64;75.34
55550;BME280;41397;49.972;18.944;2022-09-17T05:29:34;100847.19;;;14.62;75.20
55550;BME280;41397;49.972;18.944;2022-09-17T05:32:36;100860.81;;;14.44;75.41
55550;BME280;41397;49.972;18.944;2022-09-17T05:35:40;100849.37;;;14.49;76.21
55550;BME280;41397;49.972;18.944;2022-09-17T05:38:44;100848.19;;;14.61;75.89
55550;BME280;41397;49.972;18.944;2022-09-17T05:41:45;100848.19;;;14.61;75.44
55550;BME280;41397;49.972;18.944;2022-09-17T05:44:47;100834.81;;;14.76;74.76
55550;BME280;41397;49.972;18.944;2022-09-17T05:47:56;100841.95;;;14.97;75.10
55550;BME280;41397;49.972;18.944;2022-09-17T05:50:57;100834.51;;;15.07;74.04
55550;BME280;41397;49.972;18.944;2022-09-17T05:53:59;100835.82;;;15.30;73.23
55550;BME280;41397;49.972;18.944;2022-09-17T05:57:00;100840.88;;;15.53;72.36
55550;BME280;41397;49.972;18.944;2022-09-17T06:00:03;100841.62;;;15.73;71.57
55550;BME280;41397;49.972;18.944;2022-09-17T06:03:06;100829.70;;;15.90;70.32
55550;BME280;41397;49.972;18.944;2022-09-17T06:06:08;100831.60;;;15.90;69.54
55550;BME280;41397;49.972;18.944;2022-09-17T06:09:16;100822.45;;;15.89;69.36
55550;BME280;41397;49.972;18.944;2022-09-17T06:12:18;100819.49;;;15.83;69.47
55550;BME280;41397;49.972;18.944;2022-09-17T06:15:19;100803.48;;;15.86;69.59
55550;BME280;41397;49.972;18.944;2022-09-17T06:18:21;100802.84;;;15.92;69.67
55550;BME280;41397;49.972;18.944;2022-09-17T06:21:24;100816.21;;;16.05;68.51
55550;BME280;41397;49.972;18.944;2022-09-17T06:24:26;100816.69;;;16.01;68.65
55550;BME280;41397;49.972;18.944;2022-09-17T06:27:31;100820.55;;;16.08;67.93
55550;BME280;41397;49.972;18.944;2022-09-17T06:30:33;100818.27;;;16.03;68.37
55550;BME280;41397;49.972;18.944;2022-09-17T06:33:34;100825.69;;;16.03;68.18
55550;BME280;41397;49.972;18.944;2022-09-17T06:36:36;100836.38;;;16.06;67.98
55550;BME280;41397;49.972;18.944;2022-09-17T06:39:37;100836.05;;;16.09;68.24
55550;BME280;41397;49.972;18.944;2022-09-17T06:42:39;100837.53;;;15.77;68.53
55550;BME280;41397;49.972;18.944;2022-09-17T06:45:41;100844.63;;;15.80;69.11
55550;BME280;41397;49.972;18.944;2022-09-17T06:48:43;100848.79;;;15.84;69.36
55550;BME280;41397;49.972;18.944;2022-09-17T06:51:44;100837.75;;;15.84;69.03
55550;BME280;41397;49.972;18.944;2022-09-17T06:54:46;100845.95;;;15.75;69.10
55550;BME280;41397;49.972;18.944;2022-09-17T06:57:48;100851.79;;;15.72;68.86
55550;BME280;41397;49.972;18.944;2022-09-17T07:00:49;100840.89;;;15.71;68.98
55550;BME280;41397;49.972;18.944;2022-09-17T07:03:50;100845.73;;;15.69;69.24
55550;BME280;41397;49.972;18.944;2022-09-17T07:06:52;100841.62;;;15.73;69.45
55550;BME280;41397;49.972;18.944;2022-09-17T07:09:55;100839.80;;;15.82;69.25
55550;BME280;41397;49.972;18.944;2022-09-17T07:12:57;100847.61;;;15.86;68.84
55550;BME280;41397;49.972;18.944;2022-09-17T07:16:00;100854.77;;;15.97;69.10
55550;BME280;41397;49.972;18.944;2022-09-17T07:19:03;100871.31;;;15.97;68.49
55550;BME280;41397;49.972;18.944;2022-09-17T07:22:05;100875.94;;;16.14;68.96
55550;BME280;41397;49.972;18.944;2022-09-17T07:25:07;100864.49;;;16.27;68.28
55550;BME280;41397;49.972;18.944;2022-09-17T07:28:09;100873.70;;;16.36;67.33
55550;BME280;41397;49.972;18.944;2022-09-17T07:31:11;100872.42;;;16.48;66.72
55550;BME280;41397;49.972;18.944;2022-09-17T07:34:13;100871.05;;;16.52;66.23
55550;BME280;41397;49.972;18.944;2022-09-17T07:37:15;100867.15;;;16.63;66.30
55550;BME280;41397;49.972;18.944;2022-09-17T07:40:16;100877.05;;;16.74;65.40
55550;BME280;41397;49.972;18.944;2022-09-17T07:43:17;100882.91;;;16.71;65.26
55550;BME280;41397;49.972;18.944;2022-09-17T07:46:20;100883.37;;;16.84;65.64
55550;BME280;41397;49.972;18.944;2022-09-17T07:49:22;100889.09;;;16.91;65.39
55550;BME280;41397;49.972;18.944;2022-09-17T07:52:23;100890.17;;;16.98;64.68
55550;BME280;41397;49.972;18.944;2022-09-17T07:55:25;100893.80;;;16.98;64.69
55550;BME280;41397;49.972;18.944;2022-09-17T07:58:29;100893.23;;;16.86;64.37
55550;BME280;41397;49.972;18.944;2022-09-17T08:01:32;100884.80;;;16.96;64.32
55550;BME280;41397;49.972;18.944;2022-09-17T08:04:41;100869.08;;;16.97;64.23
55550;BME280;41397;49.972;18.944;2022-09-17T08:07:43;100866.72;;;16.76;64.61
55550;BME280;41397;49.972;18.944;2022-09-17T08:10:49;100865.23;;;16.81;64.67
55550;BME280;41397;49.972;18.944;2022-09-17T08:13:54;100866.80;;;16.84;64.67
55550;BME280;41397;49.972;18.944;2022-09-17T08:16:56;100869.05;;;16.89;64.43
55550;BME280;41397;49.972;18.944;2022-09-17T08:19:57;100873.42;;;16.99;64.31
55550;BME280;41397;49.972;18.944;2022-09-17T08:22:59;100884.54;;;17.16;64.55
55550;BME280;41397;49.972;18.944;2022-09-17T08:26:02;100887.18;;;17.25;63.98
55550;BME280;41397;49.972;18.944;2022-09-17T08:29:04;100887.52;;;17.22;62.89
55550;BME280;41397;49.972;18.944;2022-09-17T08:32:05;100884.39;;;17.17;63.35
55550;BME280;41397;49.972;18.944;2022-09-17T08:35:07;100896.86;;;17.29;62.92
55550;BME280;41397;49.972;18.944;2022-09-17T08:38:09;100891.91;;;17.41;63.07
55550;BME280;41397;49.972;18.944;2022-09-17T08:44:31;100870.56;;;17.68;61.69
55550;BME280;41397;49.972;18.944;2022-09-17T08:47:36;100872.50;;;17.84;61.11
55550;BME280;41397;49.972;18.944;2022-09-17T08:50:40;100855.05;;;18.08;61.21
55550;BME280;41397;49.972;18.944;2022-09-17T08:53:55;100841.91;;;18.26;60.07
55550;BME280;41397;49.972;18.944;2022-09-17T08:57:13;100850.69;;;18.54;59.79
55550;BME280;41397;49.972;18.944;2022-09-17T09:00:16;100849.95;;;18.69;59.42
55550;BME280;41397;49.972;18.944;2022-09-17T09:06:43;100849.63;;;18.80;58.27
55550;BME280;41397;49.972;18.944;2022-09-17T09:10:43;100862.09;;;18.76;57.73
55550;BME280;41397;49.972;18.944;2022-09-17T09:13:00;100864.33;;;18.72;57.36
55550;BME280;41397;49.972;18.944;2022-09-17T09:16:25;100882.54;;;18.75;56.82
55550;BME280;41397;49.972;18.944;2022-09-17T09:19:24;100889.62;;;18.69;56.94
55550;BME280;41397;49.972;18.944;2022-09-17T09:25:53;100878.53;;;18.69;57.31
55550;BME280;41397;49.972;18.944;2022-09-17T09:29:06;100880.10;;;18.80;57.66
55550;BME280;41397;49.972;18.944;2022-09-17T09:35:26;100880.96;;;18.80;58.17
55550;BME280;41397;49.972;18.944;2022-09-17T09:38:39;100889.44;;;18.79;58.08
55550;BME280;41397;49.972;18.944;2022-09-17T09:42:33;100884.25;;;18.76;57.34
55550;BME280;41397;49.972;18.944;2022-09-17T09:44:57;100887.21;;;18.74;57.70
55550;BME280;41397;49.972;18.944;2022-09-17T09:57:55;100900.88;;;18.51;58.06
55550;BME280;41397;49.972;18.944;2022-09-17T10:00:59;100897.62;;;18.39;58.05
55550;BME280;41397;49.972;18.944;2022-09-17T10:04:00;100888.27;;;18.24;58.52
55550;BME280;41397;49.972;18.944;2022-09-17T10:07:07;100883.23;;;18.28;57.89
55550;BME280;41397;49.972;18.944;2022-09-17T10:10:09;100886.35;;;18.16;58.86
55550;BME280;41397;49.972;18.944;2022-09-17T10:13:11;100879.10;;;18.15;58.65
55550;BME280;41397;49.972;18.944;2022-09-17T10:16:20;100887.25;;;18.17;58.00
55550;BME280;41397;49.972;18.944;2022-09-17T10:19:23;100898.31;;;18.09;58.80
55550;BME280;41397;49.972;18.944;2022-09-17T10:22:40;100904.70;;;18.09;59.34
55550;BME280;41397;49.972;18.944;2022-09-17T10:25:41;100911.79;;;17.95;59.91
55550;BME280;41397;49.972;18.944;2022-09-17T10:28:57;100923.71;;;17.96;59.46
55550;BME280;41397;49.972;18.944;2022-09-17T10:31:59;100914.99;;;17.74;60.04
55550;BME280;41397;49.972;18.944;2022-09-17T10:41:27;100909.78;;;17.63;60.63
55550;BME280;41397;49.972;18.944;2022-09-17T10:44:32;100910.61;;;17.56;61.60
55550;BME280;41397;49.972;18.944;2022-09-17T10:47:41;100924.43;;;17.56;61.57
55550;BME280;41397;49.972;18.944;2022-09-17T10:50:51;100923.08;;;17.60;61.01
55550;BME280;41397;49.972;18.944;2022-09-17T10:57:08;100919.26;;;17.52;60.54
55550;BME280;41397;49.972;18.944;2022-09-17T11:00:19;100920.59;;;17.48;60.66
55550;BME280;41397;49.972;18.944;2022-09-17T11:16:34;100916.12;;;17.47;61.09
55550;BME280;41397;49.972;18.944;2022-09-17T11:19:55;100927.18;;;17.47;60.50
55550;BME280;41397;49.972;18.944;2022-09-17T11:39:20;100889.63;;;17.79;59.29
55550;BME280;41397;49.972;18.944;2022-09-17T11:42:35;100902.08;;;17.83;59.33
55550;BME280;41397;49.972;18.944;2022-09-17T11:45:42;100888.95;;;17.93;59.05
55550;BME280;41397;49.972;18.944;2022-09-17T11:48:57;100896.39;;;18.01;59.07
55550;BME280;41397;49.972;18.944;2022-09-17T11:52:06;100895.70;;;18.07;58.89
55550;BME280;41397;49.972;18.944;2022-09-17T11:58:37;100891.22;;;17.98;58.52
55550;BME280;41397;49.972;18.944;2022-09-17T12:17:55;100867.32;;;17.89;60.57
55550;BME280;41397;49.972;18.944;2022-09-17T12:21:02;100862.63;;;17.81;60.87
55550;BME280;41397;49.972;18.944;2022-09-17T12:27:33;100848.09;;;17.71;61.14
55550;BME280;41397;49.972;18.944;2022-09-17T12:30:40;100850.66;;;17.72;61.06
55550;BME280;41397;49.972;18.944;2022-09-17T12:33:57;100852.22;;;17.67;61.21
55550;BME280;41397;49.972;18.944;2022-09-17T12:37:10;100845.83;;;17.66;62.14
55550;BME280;41397;49.972;18.944;2022-09-17T12:53:29;100834.06;;;17.64;62.28
55550;BME280;41397;49.972;18.944;2022-09-17T13:00:02;100838.88;;;17.54;63.19
55550;BME280;41397;49.972;18.944;2022-09-17T13:16:02;100832.72;;;17.09;67.05
55550;BME280;41397;49.972;18.944;2022-09-17T13:22:26;100840.08;;;16.93;68.73
55550;BME280;41397;49.972;18.944;2022-09-17T13:25:29;100844.52;;;16.85;69.78
55550;BME280;41397;49.972;18.944;2022-09-17T13:28:37;100856.13;;;16.89;70.23
55550;BME280;41397;49.972;18.944;2022-09-17T13:31:45;100854.88;;;16.83;70.63
55550;BME280;41397;49.972;18.944;2022-09-17T13:34:49;100863.85;;;16.85;71.03
55550;BME280;41397;49.972;18.944;2022-09-17T13:37:56;100876.98;;;16.83;71.10
55550;BME280;41397;49.972;18.944;2022-09-17T13:44:16;100853.92;;;16.75;72.69
55550;BME280;41397;49.972;18.944;2022-09-17T13:47:29;100841.97;;;16.66;72.93
55550;BME280;41397;49.972;18.944;2022-09-17T13:50:37;100835.92;;;16.62;73.30
55550;BME280;41397;49.972;18.944;2022-09-17T13:53:51;100823.45;;;16.58;73.85
55550;BME280;41397;49.972;18.944;2022-09-17T13:57:05;100803.94;;;16.52;74.44
55550;BME280;41397;49.972;18.944;2022-09-17T14:06:48;100792.27;;;16.66;74.96
55550;BME280;41397;49.972;18.944;2022-09-17T14:09:58;100781.27;;;16.74;74.42
55550;BME280;41397;49.972;18.944;2022-09-17T14:22:40;100807.30;;;16.72;74.28
55550;BME280;41397;49.972;18.944;2022-09-17T14:25:51;100803.35;;;16.74;73.33
55550;BME280;41397;49.972;18.944;2022-09-17T14:29:08;100812.05;;;16.79;73.17
55550;BME280;41397;49.972;18.944;2022-09-17T14:35:30;100814.40;;;16.74;73.14
55550;BME280;41397;49.972;18.944;2022-09-17T14:38:39;100813.24;;;16.77;73.49
55550;BME280;41397;49.972;18.944;2022-09-17T14:41:44;100823.46;;;16.84;72.85
55550;BME280;41397;49.972;18.944;2022-09-17T14:44:59;100821.90;;;16.82;72.75
55550;BME280;41397;49.972;18.944;2022-09-17T14:51:24;100812.57;;;16.83;73.06
55550;BME280;41397;49.972;18.944;2022-09-17T14:54:30;100800.84;;;16.81;73.53
55550;BME280;41397;49.972;18.944;2022-09-17T14:57:32;100801.71;;;16.81;73.46
55550;BME280;41397;49.972;18.944;2022-09-17T15:00:35;100796.00;;;16.83;73.04
55550;BME280;41397;49.972;18.944;2022-09-17T15:03:38;100791.88;;;16.87;72.65
55550;BME280;41397;49.972;18.944;2022-09-17T15:06:40;100786.88;;;16.91;72.38
55550;BME280;41397;49.972;18.944;2022-09-17T15:09:42;100781.73;;;16.96;72.70
55550;BME280;41397;49.972;18.944;2022-09-17T15:12:45;100786.91;;;16.99;72.86
55550;BME280;41397;49.972;18.944;2022-09-17T15:19:02;100785.01;;;16.99;72.90
55550;BME280;41397;49.972;18.944;2022-09-17T15:22:12;100789.33;;;17.02;72.72
55550;BME280;41397;49.972;18.944;2022-09-17T15:25:20;100810.09;;;17.06;72.54
55550;BME280;41397;49.972;18.944;2022-09-17T15:28:33;100815.43;;;17.07;72.50
55550;BME280;41397;49.972;18.944;2022-09-17T15:31:36;100817.52;;;17.05;72.73
55550;BME280;41397;49.972;18.944;2022-09-17T15:34:37;100805.05;;;17.01;72.81
55550;BME280;41397;49.972;18.944;2022-09-17T15:37:43;100806.43;;;16.97;72.46
55550;BME280;41397;49.972;18.944;2022-09-17T15:40:45;100789.87;;;16.97;72.90
55550;BME280;41397;49.972;18.944;2022-09-17T15:43:47;100794.19;;;17.00;73.06
55550;BME280;41397;49.972;18.944;2022-09-17T15:46:49;100795.38;;;16.97;72.89
55550;BME280;41397;49.972;18.944;2022-09-17T15:53:13;100792.26;;;16.92;73.35
55550;BME280;41397;49.972;18.944;2022-09-17T15:56:23;100800.55;;;16.92;73.74
55550;BME280;41397;49.972;18.944;2022-09-17T15:59:32;100805.52;;;16.89;74.17
55550;BME280;41397;49.972;18.944;2022-09-17T16:02:34;100801.18;;;16.78;74.15
55550;BME280;41397;49.972;18.944;2022-09-17T16:05:45;100795.93;;;16.75;74.04
55550;BME280;41397;49.972;18.944;2022-09-17T16:08:49;100801.45;;;16.75;74.03
55550;BME280;41397;49.972;18.944;2022-09-17T16:11:51;100798.69;;;16.75;73.52
55550;BME280;41397;49.972;18.944;2022-09-17T16:14:55;100799.88;;;16.72;73.42
55550;BME280;41397;49.972;18.944;2022-09-17T16:17:56;100805.06;;;16.67;73.45
55550;BME280;41397;49.972;18.944;2022-09-17T16:20:58;100810.59;;;16.67;73.45
55550;BME280;41397;49.972;18.944;2022-09-17T16:23:59;100808.30;;;16.62;73.10
55550;BME280;41397;49.972;18.944;2022-09-17T16:27:00;100806.73;;;16.60;73.10
55550;BME280;41397;49.972;18.944;2022-09-17T16:30:06;100809.84;;;16.57;73.22
55550;BME280;41397;49.972;18.944;2022-09-17T16:33:15;100816.02;;;16.51;72.76
55550;BME280;41397;49.972;18.944;2022-09-17T16:36:17;100805.84;;;16.51;73.25
55550;BME280;41397;49.972;18.944;2022-09-17T16:39:19;100806.17;;;16.48;73.81
55550;BME280;41397;49.972;18.944;2022-09-17T16:42:21;100801.98;;;16.44;74.07
55550;BME280;41397;49.972;18.944;2022-09-17T16:45:22;100802.64;;;16.38;74.61
55550;BME280;41397;49.972;18.944;2022-09-17T16:48:23;100801.94;;;16.36;75.41
55550;BME280;41397;49.972;18.944;2022-09-17T16:51:25;100800.55;;;16.32;75.31
55550;BME280;41397;49.972;18.944;2022-09-17T16:54:26;100798.42;;;16.26;75.55
55550;BME280;41397;49.972;18.944;2022-09-17T16:57:30;100788.74;;;16.22;75.21
55550;BME280;41397;49.972;18.944;2022-09-17T17:00:32;100794.07;;;16.23;75.45
55550;BME280;41397;49.972;18.944;2022-09-17T17:03:33;100786.31;;;16.18;75.39
55550;BME280;41397;49.972;18.944;2022-09-17T17:06:35;100784.21;;;16.12;74.74
55550;BME280;41397;49.972;18.944;2022-09-17T17:09:37;100786.25;;;16.10;75.22
55550;BME280;41397;49.972;18.944;2022-09-17T17:12:39;100785.39;;;16.10;74.88
55550;BME280;41397;49.972;18.944;2022-09-17T17:15:40;100793.96;;;16.07;75.13
55550;BME280;41397;49.972;18.944;2022-09-17T17:18:43;100789.35;;;16.07;76.09
55550;BME280;41397;49.972;18.944;2022-09-17T17:21:45;100781.01;;;15.99;75.42
55550;BME280;41397;49.972;18.944;2022-09-17T17:24:46;100783.31;;;15.86;75.52
55550;BME280;41397;49.972;18.944;2022-09-17T17:27:48;100776.37;;;15.82;75.46
55550;BME280;41397;49.972;18.944;2022-09-17T17:30:49;100782.75;;;15.82;75.46
55550;BME280;41397;49.972;18.944;2022-09-17T17:33:55;100781.43;;;15.68;74.97
55550;BME280;41397;49.972;18.944;2022-09-17T17:36:57;100784.89;;;15.70;75.45
55550;BME280;41397;49.972;18.944;2022-09-17T17:39:58;100779.23;;;15.72;75.26
55550;BME280;41397;49.972;18.944;2022-09-17T17:43:04;100790.59;;;15.69;74.91
55550;BME280;41397;49.972;18.944;2022-09-17T17:46:10;100776.20;;;15.65;75.05
55550;BME280;41397;49.972;18.944;2022-09-17T17:49:11;100785.19;;;15.67;75.10
55550;BME280;41397;49.972;18.944;2022-09-17T17:52:13;100792.45;;;15.68;75.06
55550;BME280;41397;49.972;18.944;2022-09-17T17:55:15;100796.52;;;15.64;75.33
55550;BME280;41397;49.972;18.944;2022-09-17T17:58:16;100796.52;;;15.64;75.74
55550;BME280;41397;49.972;18.944;2022-09-17T18:01:20;100801.87;;;15.66;75.51
55550;BME280;41397;49.972;18.944;2022-09-17T18:04:21;100801.97;;;15.56;75.90
55550;BME280;41397;49.972;18.944;2022-09-17T18:07:22;100805.77;;;15.55;76.09
55550;BME280;41397;49.972;18.944;2022-09-17T18:10:24;100807.80;;;15.53;75.91
55550;BME280;41397;49.972;18.944;2022-09-17T18:13:25;100796.38;;;15.48;75.63
55550;BME280;41397;49.972;18.944;2022-09-17T18:16:27;100807.41;;;15.48;75.96
55550;BME280;41397;49.972;18.944;2022-09-17T18:19:29;100809.30;;;15.47;76.03
55550;BME280;41397;49.972;18.944;2022-09-17T18:22:30;100804.33;;;15.51;76.01
55550;BME280;41397;49.972;18.944;2022-09-17T18:25:32;100807.09;;;15.51;76.49
55550;BME280;41397;49.972;18.944;2022-09-17T18:28:34;100803.22;;;15.44;76.79
55550;BME280;41397;49.972;18.944;2022-09-17T18:31:36;100807.88;;;15.43;76.61
55550;BME280;41397;49.972;18.944;2022-09-17T18:34:37;100807.46;;;15.38;76.63
55550;BME280;41397;49.972;18.944;2022-09-17T18:37:39;100803.85;;;15.38;76.89
55550;BME280;41397;49.972;18.944;2022-09-17T18:40:40;100804.48;;;15.31;77.99
55550;BME280;41397;49.972;18.944;2022-09-17T18:43:41;100800.61;;;15.24;78.28
55550;BME280;41397;49.972;18.944;2022-09-17T18:46:42;100801.09;;;15.20;78.25
55550;BME280;41397;49.972;18.944;2022-09-17T18:49:44;100810.22;;;15.20;78.65
55550;BME280;41397;49.972;18.944;2022-09-17T18:52:45;100807.60;;;15.19;78.86
55550;BME280;41397;49.972;18.944;2022-09-17T18:55:47;100806.73;;;15.18;78.51
55550;BME280;41397;49.972;18.944;2022-09-17T18:58:50;100816.73;;;15.19;78.44
55550;BME280;41397;49.972;18.944;2022-09-17T19:01:52;100815.73;;;15.20;78.31
55550;BME280;41397;49.972;18.944;2022-09-17T19:04:53;100807.60;;;15.19;78.41